Time;durP1;ratioP1;P1;durP2;ratioP2;P2;SDS_P1;SDS_P2;PMS_P1;PMS_P2;Temp;Humidity;BMP_temperature;BMP_pressure;BME280_temperature;BME280_humidity;BME280_pressure;Samples;Min_cycle;Max_cycle;Signal;HPM_P1;HPM_P2
2023/07/14 00:01:43;;;;;;;10.45;6.07;;;;;;;28.21;54.99;100764.75;6299070;22;20786;-76
2023/07/14 00:04:13;;;;;;;10.88;6.53;;;;;;;28.12;55.34;100776.59;6299365;22;20365;-76
2023/07/14 00:06:40;;;;;;;8.85;5.60;;;;;;;28.12;55.28;100776.59;6300656;22;20341;-76
2023/07/14 00:09:17;;;;;;;7.93;5.45;;;;;;;28.22;55.04;100779.22;6302082;22;20421;-76
2023/07/14 00:11:43;;;;;;;9.90;6.00;;;;;;;28.29;54.88;100778.88;6302418;22;20429;-76
2023/07/14 00:14:08;;;;;;;11.23;6.35;;;;;;;28.28;54.88;100780.00;6304501;22;20493;-76
2023/07/14 00:16:34;;;;;;;10.03;6.17;;;;;;;28.35;54.71;100772.28;6304443;22;20345;-76
2023/07/14 00:18:59;;;;;;;10.43;6.00;;;;;;;28.50;53.73;100776.75;6305167;22;20334;-76
2023/07/14 00:21:26;;;;;;;10.53;6.27;;;;;;;28.47;53.92;100775.44;6304663;22;20651;-76
2023/07/14 00:24:00;;;;;;;13.13;5.93;;;;;;;28.43;54.13;100782.56;6305127;22;20405;-76
2023/07/14 00:26:30;;;;;;;8.90;5.67;;;;;;;28.47;53.92;100791.78;6304904;22;20844;-75
2023/07/14 00:28:55;;;;;;;8.70;5.72;;;;;;;28.41;54.08;100803.84;6304709;22;20341;-76
2023/07/14 00:31:23;;;;;;;10.85;6.10;;;;;;;28.17;54.85;100799.16;6304356;22;20337;-76
2023/07/14 00:33:51;;;;;;;9.95;5.50;;;;;;;27.71;55.98;100804.94;6304683;22;20334;-76
2023/07/14 00:36:17;;;;;;;7.38;4.72;;;;;;;27.49;56.60;100804.53;6304512;22;20418;-76
2023/07/14 00:38:43;;;;;;;8.98;5.28;;;;;;;27.62;55.83;100812.91;6304460;22;20426;-76
2023/07/14 00:41:21;;;;;;;11.40;5.80;;;;;;;27.55;55.83;100800.69;6304619;22;20338;-76
2023/07/14 00:43:47;;;;;;;10.50;5.80;;;;;;;27.70;55.39;100795.16;6304444;22;20380;-76
2023/07/14 00:46:38;;;;;;;11.27;5.50;;;;;;;27.94;54.62;100811.59;6304247;22;20345;-76
2023/07/14 00:49:10;;;;;;;9.75;5.65;;;;;;;27.95;54.52;100820.63;6298647;22;20349;-76
2023/07/14 00:51:37;;;;;;;10.50;5.68;;;;;;;27.86;54.81;100806.75;6304844;22;20334;-76
2023/07/14 00:54:02;;;;;;;10.73;5.32;;;;;;;28.03;54.02;100803.63;6304572;22;20338;-75
2023/07/14 00:56:30;;;;;;;11.55;5.80;;;;;;;28.06;54.01;100830.31;6304681;22;20372;-76
2023/07/14 00:58:58;;;;;;;11.13;6.00;;;;;;;28.01;54.06;100846.72;6304162;22;20771;-76
2023/07/14 01:01:24;;;;;;;9.18;5.93;;;;;;;27.86;54.71;100844.88;6304521;22;20709;-76
2023/07/14 01:03:57;;;;;;;16.83;6.32;;;;;;;27.69;54.98;100855.34;6277501;22;20373;-76
2023/07/14 01:06:36;;;;;;;12.07;5.43;;;;;;;27.59;55.57;100861.66;6304477;22;20338;-76
2023/07/14 01:09:10;;;;;;;10.82;5.38;;;;;;;27.54;55.52;100865.22;6304468;22;20340;-76
2023/07/14 01:11:51;;;;;;;12.20;6.00;;;;;;;27.44;55.82;100855.22;6277535;22;20342;-76
2023/07/14 01:14:24;;;;;;;9.90;5.50;;;;;;;27.43;55.78;100855.50;6304065;22;20399;-76
2023/07/14 01:16:53;;;;;;;9.80;5.88;;;;;;;27.22;56.25;100871.06;6304406;22;20365;-76
2023/07/14 01:19:19;;;;;;;10.20;5.60;;;;;;;27.12;56.66;100881.97;6304459;22;20398;-77
2023/07/14 01:21:47;;;;;;;9.73;5.57;;;;;;;27.22;56.30;100881.94;6306474;22;20338;-77
2023/07/14 01:24:38;;;;;;;11.50;6.25;;;;;;;27.21;56.50;100889.28;6306268;22;20797;-76
2023/07/14 01:27:08;;;;;;;10.25;5.35;;;;;;;27.03;56.56;100895.34;6306573;22;20342;-75
2023/07/14 01:29:35;;;;;;;14.90;5.50;;;;;;;27.02;55.19;100899.94;6305961;22;20805;-75
2023/07/14 01:32:01;;;;;;;10.48;5.18;;;;;;;26.98;54.87;100915.19;6306215;22;20342;-75
2023/07/14 01:34:28;;;;;;;10.70;5.30;;;;;;;26.98;54.15;100926.09;6306243;22;20690;-75
2023/07/14 01:36:58;;;;;;;12.20;4.88;;;;;;;26.74;53.79;100947.63;6306630;22;20342;-74
2023/07/14 01:39:28;;;;;;;10.95;4.60;;;;;;;26.61;53.35;100953.56;6305986;22;20681;-75
2023/07/14 01:41:53;;;;;;;7.70;3.97;;;;;;;26.59;53.10;100961.97;6306152;22;20429;-75
2023/07/14 01:44:21;;;;;;;7.15;3.83;;;;;;;26.44;52.77;100983.72;6305642;22;20353;-75
2023/07/14 01:46:48;;;;;;;7.35;3.45;;;;;;;26.31;52.33;101002.19;6306108;22;20864;-77
2023/07/14 01:49:32;;;;;;;12.00;4.45;;;;;;;26.51;51.41;100992.44;6305948;22;20341;-75
2023/07/14 01:52:01;;;;;;;9.32;4.05;;;;;;;26.56;51.02;100991.59;6306155;22;20322;-74
2023/07/14 01:54:44;;;;;;;10.18;4.43;;;;;;;26.58;50.99;101003.84;6306072;22;20429;-75
2023/07/14 01:57:14;;;;;;;9.68;4.35;;;;;;;26.79;50.14;101025.66;6305810;22;20373;-75
2023/07/14 01:59:44;;;;;;;9.93;4.28;;;;;;;26.82;50.05;101030.56;6306310;22;20447;-76
2023/07/14 02:02:15;;;;;;;10.70;4.18;;;;;;;26.77;50.03;101017.75;6305956;22;20341;-75
2023/07/14 02:04:41;;;;;;;11.95;4.10;;;;;;;26.72;50.45;101039.50;6305888;22;20365;-75
2023/07/14 02:07:12;;;;;;;16.98;4.35;;;;;;;26.89;50.34;101045.50;6305833;22;20349;-75
2023/07/14 02:09:37;;;;;;;8.80;3.55;;;;;;;26.93;50.75;101051.22;6305824;22;20325;-75
2023/07/14 02:12:06;;;;;;;7.80;3.40;;;;;;;26.71;52.03;101059.66;6305702;22;20948;-74
2023/07/14 02:15:06;;;;;;;13.10;4.35;;;;;;;26.78;52.26;101073.00;6309001;22;20487;-75
2023/07/14 02:17:33;;;;;;;12.27;3.70;;;;;;;26.78;52.43;101073.81;6287114;22;20356;-75
2023/07/14 02:20:06;;;;;;;11.18;4.22;;;;;;;26.73;52.66;101062.91;6309751;22;20357;-75
2023/07/14 02:22:34;;;;;;;12.05;4.50;;;;;;;26.89;52.40;101069.19;6306031;22;20334;-75
2023/07/14 02:25:03;;;;;;;14.07;3.65;;;;;;;26.70;53.14;101072.44;6305635;22;20742;-75
2023/07/14 02:27:28;;;;;;;10.23;4.15;;;;;;;26.87;52.80;101079.53;6305241;22;20865;-76
2023/07/14 02:29:59;;;;;;;11.03;4.40;;;;;;;26.87;52.70;101074.91;6305783;22;20367;-75
2023/07/14 02:32:38;;;;;;;11.43;4.45;;;;;;;26.91;52.70;101087.97;6305638;22;20426;-75
2023/07/14 02:35:45;;;;;;;10.55;3.85;;;;;;;26.79;52.88;101080.84;6305557;22;20338;-75
2023/07/14 02:38:13;;;;;;;11.77;4.20;;;;;;;26.89;52.16;101080.88;6288973;22;20345;-75
2023/07/14 02:40:46;;;;;;;8.63;3.63;;;;;;;26.97;51.51;101073.25;6305656;22;20402;-76
2023/07/14 02:43:17;;;;;;;12.77;3.63;;;;;;;26.98;50.89;101081.16;6305458;22;20365;-75
2023/07/14 02:45:57;;;;;;;7.73;3.50;;;;;;;26.97;50.72;101084.16;6278798;22;20368;-75
2023/07/14 02:48:39;;;;;;;12.52;3.97;;;;;;;27.21;50.07;101095.34;6305461;22;20334;-75
2023/07/14 02:51:05;;;;;;;8.98;3.70;;;;;;;27.17;49.51;101086.06;6305511;22;20334;-75
2023/07/14 02:53:31;;;;;;;9.63;3.53;;;;;;;27.20;49.30;101089.03;6305608;22;20389;-75
2023/07/14 02:55:56;;;;;;;8.27;3.40;;;;;;;27.35;49.17;101085.56;6305158;22;20341;-75
2023/07/14 02:58:23;;;;;;;8.25;3.72;;;;;;;27.40;48.66;101090.16;6305286;22;20370;-76
2023/07/14 03:00:49;;;;;;;9.48;3.45;;;;;;;27.48;48.88;101107.84;6305484;22;20338;-76
2023/07/14 03:03:15;;;;;;;11.77;3.53;;;;;;;27.50;48.77;101111.13;6305542;22;20506;-76
2023/07/14 03:05:40;;;;;;;9.75;3.53;;;;;;;27.50;48.74;101119.31;6253104;22;20886;-74
2023/07/14 03:08:14;;;;;;;7.88;3.35;;;;;;;27.31;48.82;101119.03;6305407;22;20330;-75
2023/07/14 03:10:44;;;;;;;8.43;3.58;;;;;;;27.24;48.94;101116.53;6305075;22;20782;-75
2023/07/14 03:13:11;;;;;;;6.57;3.13;;;;;;;27.29;48.79;101127.47;6305559;22;20357;-75
2023/07/14 03:15:36;;;;;;;11.00;4.03;;;;;;;27.41;48.40;101124.47;6305361;22;20342;-75
2023/07/14 03:18:02;;;;;;;6.85;3.30;;;;;;;27.49;48.42;101121.19;6305510;22;20425;-75
2023/07/14 03:20:28;;;;;;;9.35;3.28;;;;;;;27.60;47.92;101131.00;6278412;22;20334;-76
2023/07/14 03:22:53;;;;;;;4.87;2.90;;;;;;;27.65;47.33;101133.69;6305296;22;20798;-76
2023/07/14 03:25:19;;;;;;;8.47;3.53;;;;;;;27.71;47.15;101123.59;6278266;22;20345;-76
2023/07/14 03:27:46;;;;;;;5.60;2.85;;;;;;;27.75;46.94;101123.88;6305515;22;20338;-76
2023/07/14 03:30:13;;;;;;;6.45;3.15;;;;;;;27.70;46.76;101111.09;6305471;22;20401;-76
2023/07/14 03:32:38;;;;;;;6.20;2.63;;;;;;;27.64;46.31;101115.72;6305464;22;20326;-76
2023/07/14 03:35:05;;;;;;;8.32;2.42;;;;;;;27.67;45.72;101116.28;6303919;22;20354;-76
2023/07/14 03:37:31;;;;;;;4.15;2.00;;;;;;;27.75;44.84;101123.88;6299586;22;20675;-76
2023/07/14 03:39:56;;;;;;;7.63;2.33;;;;;;;27.63;44.80;101137.78;6304598;22;20350;-75
2023/07/14 03:42:22;;;;;;;5.87;2.30;;;;;;;27.39;44.73;101145.72;6302523;22;20334;-76
2023/07/14 03:44:47;;;;;;;7.07;2.70;;;;;;;27.43;44.86;101147.59;6303771;22;20860;-76
2023/07/14 03:47:13;;;;;;;12.67;2.67;;;;;;;27.46;44.39;101155.22;6305169;22;20422;-76
2023/07/14 03:49:38;;;;;;;6.03;2.20;;;;;;;27.55;44.16;101146.50;6305324;22;20344;-76
2023/07/14 03:52:04;;;;;;;4.07;2.07;;;;;;;27.67;43.69;101160.66;6278219;22;20399;-76
2023/07/14 03:54:30;;;;;;;8.02;2.38;;;;;;;27.66;43.88;101159.03;6304937;22;20770;-75
2023/07/14 03:56:58;;;;;;;9.80;2.40;;;;;;;27.65;43.84;101162.84;6304822;22;20461;-75
2023/07/14 03:59:23;;;;;;;9.90;2.28;;;;;;;27.67;43.79;101157.13;6278155;22;20883;-75
2023/07/14 04:01:49;;;;;;;6.43;2.17;;;;;;;27.83;43.64;101162.25;6304083;22;20337;-75
2023/07/14 04:04:15;;;;;;;5.63;2.37;;;;;;;27.87;43.51;101156.28;6277445;22;20487;-75
2023/07/14 04:06:40;;;;;;;7.05;2.22;;;;;;;27.88;44.06;101169.63;6302786;22;20687;-75
2023/07/14 04:09:06;;;;;;;8.17;2.40;;;;;;;27.89;44.37;101163.06;6303691;22;20638;-75
2023/07/14 04:11:35;;;;;;;5.15;2.40;;;;;;;28.01;44.25;101168.25;6304718;22;20338;-76
2023/07/14 04:14:02;;;;;;;10.02;2.40;;;;;;;28.14;44.03;101178.56;6305096;22;20338;-76
2023/07/14 04:16:28;;;;;;;5.55;2.22;;;;;;;28.20;44.14;101176.69;6305019;22;20338;-76
2023/07/14 04:18:53;;;;;;;7.60;2.00;;;;;;;28.29;43.84;101187.78;6305075;22;20533;-76
2023/07/14 04:21:24;;;;;;;3.10;2.00;;;;;;;28.28;43.84;101184.25;6304882;22;20353;-76
2023/07/14 04:23:53;;;;;;;4.68;2.20;;;;;;;28.28;43.78;101188.91;6305222;22;20362;-75
2023/07/14 04:26:18;;;;;;;6.55;2.20;;;;;;;28.30;43.71;101190.25;6304987;22;20928;-76
2023/07/14 04:28:44;;;;;;;5.77;2.17;;;;;;;28.41;43.74;101202.78;6305401;22;20366;-76
2023/07/14 04:31:09;;;;;;;6.90;2.30;;;;;;;28.44;43.73;101198.66;6304878;22;20342;-76
2023/07/14 04:33:35;;;;;;;6.05;2.42;;;;;;;28.52;43.42;101205.44;6305082;22;20334;-76
2023/07/14 04:36:00;;;;;;;8.25;2.97;;;;;;;28.60;43.55;101210.38;6304803;22;20333;-76
2023/07/14 04:38:26;;;;;;;12.00;3.43;;;;;;;28.59;43.41;101190.47;6304413;22;20338;-76
2023/07/14 04:40:52;;;;;;;11.33;2.60;;;;;;;28.57;43.54;101200.81;6304526;22;20740;-76
2023/07/14 04:43:18;;;;;;;7.10;2.40;;;;;;;28.68;43.08;101200.78;6304648;22;20358;-75
2023/07/14 04:45:46;;;;;;;10.02;2.65;;;;;;;28.82;42.81;101206.44;6304334;22;20342;-76
2023/07/14 04:48:17;;;;;;;10.35;2.58;;;;;;;28.81;42.31;101204.81;6304660;22;20326;-75
2023/07/14 04:50:45;;;;;;;9.23;3.13;;;;;;;28.94;42.20;101209.66;6277324;22;20367;-75
2023/07/14 04:53:11;;;;;;;9.65;2.50;;;;;;;29.06;42.10;101212.03;6304134;22;20479;-76
2023/07/14 04:55:41;;;;;;;8.20;2.15;;;;;;;29.17;41.68;101214.47;6305543;22;20348;-76
2023/07/14 04:58:08;;;;;;;7.03;2.33;;;;;;;29.30;41.87;101213.00;6306403;22;20409;-75
2023/07/14 05:00:35;;;;;;;9.48;2.42;;;;;;;29.43;41.42;101216.19;6306588;22;20425;-76
2023/07/14 05:03:01;;;;;;;14.03;3.53;;;;;;;29.51;41.30;101210.94;6306861;22;20334;-75
2023/07/14 05:05:27;;;;;;;9.95;2.70;;;;;;;29.65;41.09;101218.47;6306478;22;20338;-75
2023/07/14 05:07:55;;;;;;;8.97;3.03;;;;;;;29.77;40.70;101218.94;6306721;22;21315;-75
2023/07/14 05:10:22;;;;;;;12.23;2.80;;;;;;;29.85;40.94;101229.22;6307391;22;20330;-76
2023/07/14 05:12:56;;;;;;;11.60;3.00;;;;;;;29.87;40.95;101221.59;6307307;22;20330;-76
2023/07/14 05:15:24;;;;;;;7.60;2.42;;;;;;;30.07;41.06;101226.03;6306509;22;20334;-76
2023/07/14 05:17:50;;;;;;;12.15;3.40;;;;;;;30.16;40.92;101228.13;6306563;22;20391;-77
2023/07/14 05:20:18;;;;;;;9.05;2.45;;;;;;;30.22;40.95;101224.25;6305952;22;20334;-76
2023/07/14 05:25:35;;;;;;;17.13;3.45;;;;;;;30.43;40.83;101225.66;6306609;22;20797;-76
2023/07/14 05:28:01;;;;;;;12.00;4.30;;;;;;;30.51;40.57;101226.94;6307125;22;20338;-75
2023/07/14 05:30:26;;;;;;;10.48;2.72;;;;;;;30.70;40.63;101237.91;6307089;22;20341;-76
2023/07/14 05:32:51;;;;;;;9.23;3.30;;;;;;;30.84;40.38;101240.75;6306886;22;20817;-76
2023/07/14 05:35:18;;;;;;;6.47;2.73;;;;;;;30.89;40.16;101243.41;6306689;22;20675;-76
2023/07/14 05:37:44;;;;;;;8.43;2.67;;;;;;;31.03;39.83;101249.81;6307590;22;20791;-75
2023/07/14 05:40:11;;;;;;;11.73;3.47;;;;;;;31.08;39.85;101240.75;6308560;22;20345;-75
2023/07/14 05:42:38;;;;;;;10.02;2.70;;;;;;;31.16;39.68;101244.72;6280297;22;20384;-76
2023/07/14 05:45:05;;;;;;;7.85;2.40;;;;;;;31.27;39.44;101248.13;6306394;22;20354;-75
2023/07/14 05:47:33;;;;;;;9.40;2.57;;;;;;;31.26;38.94;101244.59;6253941;22;20794;-76
2023/07/14 05:50:00;;;;;;;9.87;2.80;;;;;;;31.19;38.67;101242.22;6306607;22;20342;-76
2023/07/14 05:52:26;;;;;;;10.15;2.47;;;;;;;31.06;37.01;101251.16;6306615;22;20434;-76
2023/07/14 05:54:51;;;;;;;7.38;2.35;;;;;;;30.85;36.27;101261.56;6306854;22;20345;-76
2023/07/14 05:57:16;;;;;;;8.00;2.00;;;;;;;30.84;36.55;101266.19;6279485;22;20373;-76
2023/07/14 05:59:42;;;;;;;9.73;2.20;;;;;;;30.58;35.95;101252.03;6306588;22;20771;-75
2023/07/14 06:02:13;;;;;;;7.77;1.90;;;;;;;30.73;35.20;101256.47;6307673;22;20804;-74
2023/07/14 06:04:39;;;;;;;9.15;2.22;;;;;;;30.89;35.41;101254.38;6306994;22;20365;-76
2023/07/14 06:07:06;;;;;;;5.32;1.85;;;;;;;30.78;35.27;101250.16;6306428;22;20436;-76
2023/07/14 06:09:37;;;;;;;6.90;1.92;;;;;;;30.72;34.98;101245.81;6307000;22;20338;-76
2023/07/14 06:12:04;;;;;;;10.10;1.83;;;;;;;30.76;34.82;101249.63;6306331;22;20647;-76
2023/07/14 06:14:34;;;;;;;9.52;1.85;;;;;;;30.86;34.53;101244.00;6306726;22;20338;-76
2023/07/14 06:17:00;;;;;;;6.78;1.95;;;;;;;31.02;34.14;101253.66;6306642;22;20334;-76
2023/07/14 06:19:27;;;;;;;9.20;2.10;;;;;;;31.03;34.25;101260.78;6306140;22;20348;-76
2023/07/14 06:21:53;;;;;;;5.13;1.30;;;;;;;30.81;33.33;101244.91;6307053;22;20334;-76
2023/07/14 06:24:19;;;;;;;7.30;1.58;;;;;;;30.61;33.64;101239.66;6307573;22;20369;-76
2023/07/14 06:26:45;;;;;;;4.93;1.53;;;;;;;30.97;33.38;101248.28;6310411;22;20373;-76
2023/07/14 06:29:10;;;;;;;6.50;1.80;;;;;;;30.84;33.43;101244.28;6313180;22;20385;-77
2023/07/14 06:31:36;;;;;;;7.20;1.83;;;;;;;30.94;32.92;101254.34;6312900;22;20345;-75
2023/07/14 06:34:03;;;;;;;5.13;1.40;;;;;;;30.72;33.45;101246.66;6311753;22;20330;-74
2023/07/14 06:36:29;;;;;;;6.33;1.63;;;;;;;30.82;33.29;101242.97;6309658;22;20361;-76
2023/07/14 06:38:54;;;;;;;8.00;1.60;;;;;;;30.95;33.45;101241.44;6306617;22;20682;-77
2023/07/14 06:41:19;;;;;;;7.63;1.50;;;;;;;31.02;33.03;101242.72;6309075;22;20344;-76
2023/07/14 06:43:45;;;;;;;7.47;1.60;;;;;;;30.80;32.88;101245.19;6296561;22;20377;-75
2023/07/14 06:46:10;;;;;;;5.27;1.60;;;;;;;30.61;33.36;101240.50;6296650;22;20345;-76
2023/07/14 06:48:36;;;;;;;9.13;2.13;;;;;;;30.92;33.53;101245.59;6295693;22;20478;-76
2023/07/14 06:51:01;;;;;;;7.60;1.77;;;;;;;30.81;33.41;101247.63;6294793;22;20459;-76
2023/07/14 06:53:27;;;;;;;6.63;1.60;;;;;;;30.84;33.07;101232.53;6295563;22;20333;-76
2023/07/14 06:55:52;;;;;;;10.30;1.97;;;;;;;30.67;33.40;101233.84;6295216;22;20442;-76
2023/07/14 06:58:18;;;;;;;7.50;1.70;;;;;;;30.67;33.74;101239.31;6295900;22;20683;-76
2023/07/14 07:00:44;;;;;;;5.20;1.33;;;;;;;30.32;33.82;101232.31;6297515;22;20692;-76
2023/07/14 07:03:09;;;;;;;5.30;1.50;;;;;;;30.57;33.75;101227.69;6297345;22;20357;-75
2023/07/14 07:05:41;;;;;;;6.30;1.60;;;;;;;31.10;33.42;101229.47;6296898;22;20333;-76
2023/07/14 07:08:14;;;;;;;7.00;2.00;;;;;;;31.26;32.95;101239.09;6300987;22;20330;-75
2023/07/14 07:10:41;;;;;;;10.57;2.22;;;;;;;31.24;32.96;101233.09;6303649;22;20425;-75
2023/07/14 07:13:08;;;;;;;4.53;1.33;;;;;;;31.16;32.35;101237.31;6303805;22;20648;-76
2023/07/14 07:15:33;;;;;;;7.45;1.95;;;;;;;30.93;33.05;101232.72;6303515;22;20735;-75
2023/07/14 07:17:59;;;;;;;5.43;1.57;;;;;;;31.34;32.76;101241.16;6305140;22;20884;-76
2023/07/14 07:20:24;;;;;;;8.13;1.77;;;;;;;31.40;32.54;101231.75;6304975;22;20577;-76
2023/07/14 07:22:49;;;;;;;4.93;1.43;;;;;;;31.42;32.77;101236.91;6303836;22;20334;-76
2023/07/14 07:25:16;;;;;;;7.80;1.90;;;;;;;31.36;32.95;101233.44;6305073;22;20346;-75
2023/07/14 07:27:42;;;;;;;7.65;1.63;;;;;;;31.39;32.44;101234.78;6305870;22;20734;-75
2023/07/14 07:30:09;;;;;;;4.68;1.38;;;;;;;31.30;31.99;101234.66;6306560;22;20337;-75
2023/07/14 07:32:34;;;;;;;6.65;1.50;;;;;;;31.22;31.74;101241.63;6279124;22;20628;-76
2023/07/14 07:35:00;;;;;;;5.27;1.40;;;;;;;30.99;31.52;101234.28;6279262;22;20415;-76
2023/07/14 07:37:27;;;;;;;5.68;1.48;;;;;;;31.11;30.99;101234.66;6307027;22;20360;-76
2023/07/14 07:39:56;;;;;;;6.00;1.50;;;;;;;31.43;30.90;101233.88;6306608;22;20334;-75
2023/07/14 07:42:22;;;;;;;5.03;1.50;;;;;;;31.46;30.98;101221.53;6305239;22;20794;-76
2023/07/14 07:44:48;;;;;;;4.70;1.30;;;;;;;31.43;31.65;101231.16;6305103;22;20372;-75
2023/07/14 07:47:14;;;;;;;5.97;1.40;;;;;;;31.38;31.74;101222.19;6305593;22;20424;-76
2023/07/14 07:49:39;;;;;;;5.10;1.60;;;;;;;31.41;31.80;101227.09;6306453;22;20356;-76
2023/07/14 07:52:07;;;;;;;2.80;1.42;;;;;;;31.70;32.19;101213.19;6310117;22;20330;-78
2023/07/14 07:54:32;;;;;;;5.27;1.80;;;;;;;31.71;32.24;101216.75;6307187;22;20472;-75
2023/07/14 07:56:58;;;;;;;3.92;1.50;;;;;;;31.96;31.72;101215.47;6305935;22;20397;-75
2023/07/14 07:59:24;;;;;;;9.43;1.70;;;;;;;31.92;31.22;101217.19;6305412;22;20345;-75
2023/07/14 08:01:49;;;;;;;6.87;1.47;;;;;;;31.71;31.39;101212.09;6304968;22;20423;-76
2023/07/14 08:04:16;;;;;;;6.45;1.52;;;;;;;31.58;31.44;101210.13;6278372;22;20819;-75
2023/07/14 08:06:42;;;;;;;7.40;1.92;;;;;;;31.20;32.08;101213.69;6305480;22;20790;-75
2023/07/14 08:09:09;;;;;;;3.72;1.40;;;;;;;31.56;32.18;101202.19;6305404;22;20330;-76
2023/07/14 08:11:35;;;;;;;5.53;1.48;;;;;;;31.85;32.13;101198.41;6305534;22;20834;-76
2023/07/14 08:14:02;;;;;;;3.13;1.15;;;;;;;32.30;31.51;101193.16;6304867;22;20330;-75
2023/07/14 08:16:31;;;;;;;6.40;1.40;;;;;;;32.37;31.02;101199.06;6305073;22;20377;-76
2023/07/14 08:18:57;;;;;;;4.65;1.38;;;;;;;31.69;31.24;101197.84;6305048;22;20342;-76
2023/07/14 08:21:22;;;;;;;5.68;1.60;;;;;;;32.04;31.05;101192.06;6278143;22;20352;-76
2023/07/14 08:23:48;;;;;;;6.33;1.60;;;;;;;32.09;29.83;101186.47;6305086;22;20366;-77
2023/07/14 08:26:14;;;;;;;5.00;1.33;;;;;;;31.72;30.91;101183.56;6305289;22;20371;-76
2023/07/14 08:28:39;;;;;;;5.38;1.50;;;;;;;32.00;31.15;101183.63;6305012;22;20342;-76
2023/07/14 08:31:09;;;;;;;4.40;1.40;;;;;;;32.31;29.97;101192.06;6305487;22;20813;-76
2023/07/14 08:33:36;;;;;;;5.97;1.42;;;;;;;32.39;29.74;101204.25;6278618;22;20402;-77
2023/07/14 08:36:03;;;;;;;4.45;1.67;;;;;;;32.09;29.93;101200.19;6306134;22;20335;-75
2023/07/14 08:38:31;;;;;;;6.40;1.55;;;;;;;31.81;30.82;101189.97;6305755;22;20349;-77
2023/07/14 08:41:26;;;;;;;8.48;1.95;;;;;;;32.12;30.36;101191.34;6304819;22;20349;-75
2023/07/14 08:43:59;;;;;;;7.20;1.75;;;;;;;32.22;30.66;101179.38;6304119;22;20365;-75
2023/07/14 08:46:57;;;;;;;9.45;1.92;;;;;;;32.31;29.42;101181.09;6304840;22;20338;-76
2023/07/14 08:49:33;;;;;;;11.02;2.90;;;;;;;32.38;30.15;101173.25;6304496;22;20417;-75
2023/07/14 08:52:03;;;;;;;6.70;1.50;;;;;;;32.36;29.84;101186.47;6305142;22;20857;-76
2023/07/14 08:54:42;;;;;;;7.20;1.63;;;;;;;32.47;29.88;101186.28;6304940;22;20334;-76
2023/07/14 08:57:20;;;;;;;5.18;1.35;;;;;;;32.47;30.06;101178.84;6304722;22;20432;-76
2023/07/14 08:59:48;;;;;;;7.07;1.83;;;;;;;32.57;30.37;101158.59;6304488;22;20333;-75
2023/07/14 09:02:22;;;;;;;7.03;1.60;;;;;;;32.29;31.17;101180.59;6304793;22;20775;-76
2023/07/14 09:05:03;;;;;;;4.57;1.45;;;;;;;31.91;31.68;101182.66;6304856;22;20451;-76
2023/07/14 09:07:29;;;;;;;6.77;1.93;;;;;;;32.04;31.48;101179.16;6304793;22;20817;-76
2023/07/14 09:09:55;;;;;;;4.00;0.98;;;;;;;31.51;31.55;101188.59;6305440;22;20334;-77
2023/07/14 09:12:34;;;;;;;6.45;1.70;;;;;;;31.72;32.09;101190.97;6304533;22;20349;-75
2023/07/14 09:15:19;;;;;;;6.63;1.55;;;;;;;31.83;32.44;101181.44;6304767;22;20322;-75
2023/07/14 09:18:12;;;;;;;6.67;1.70;;;;;;;32.21;31.92;101170.31;6304834;22;20329;-76
2023/07/14 09:21:22;;;;;;;7.25;1.50;;;;;;;32.07;32.41;101178.56;6304779;22;20334;-76
2023/07/14 09:23:47;;;;;;;5.63;1.85;;;;;;;32.45;31.62;101172.03;6237005;22;20697;-75
2023/07/14 09:26:29;;;;;;;6.80;1.43;;;;;;;32.58;31.93;101160.22;6277591;22;20346;-74
2023/07/14 09:28:57;;;;;;;5.85;1.50;;;;;;;32.57;31.88;101172.31;6304679;22;20778;-76
2023/07/14 09:31:31;;;;;;;6.03;1.55;;;;;;;32.66;32.08;101173.25;6277902;22;20338;-75
2023/07/14 09:34:00;;;;;;;4.47;1.42;;;;;;;32.66;31.97;101170.50;6305285;22;20421;-75
2023/07/14 09:36:28;;;;;;;6.10;2.03;;;;;;;33.02;31.64;101166.91;6305360;22;20660;-76
2023/07/14 09:39:04;;;;;;;8.00;2.10;;;;;;;33.11;31.49;101172.50;6305554;22;20343;-76
2023/07/14 09:41:31;;;;;;;7.40;2.17;;;;;;;33.07;31.36;101164.06;6307025;22;20338;-76
2023/07/14 09:43:58;;;;;;;5.05;1.60;;;;;;;33.18;31.72;101153.66;6310295;22;20727;-76
2023/07/14 09:46:25;;;;;;;5.65;1.70;;;;;;;33.34;31.47;101167.84;6308303;22;20402;-75
2023/07/14 09:49:09;;;;;;;4.23;1.43;;;;;;;33.16;30.79;101169.66;6281311;22;20358;-76
2023/07/14 09:51:36;;;;;;;4.13;1.37;;;;;;;32.84;31.39;101176.16;6307251;22;20342;-77
2023/07/14 09:54:07;;;;;;;6.13;1.73;;;;;;;32.68;31.77;101161.94;6306945;22;20421;-76
2023/07/14 09:56:38;;;;;;;5.90;1.55;;;;;;;32.86;31.77;101165.66;6307395;22;20369;-76
2023/07/14 09:59:14;;;;;;;5.78;1.70;;;;;;;32.92;31.78;101154.25;6307555;22;20346;-75
2023/07/14 10:01:54;;;;;;;4.50;1.63;;;;;;;33.07;30.88;101164.06;6307308;22;20334;-76
2023/07/14 10:04:26;;;;;;;6.20;1.50;;;;;;;33.00;30.86;101151.88;6306799;22;20449;-75
2023/07/14 10:06:52;;;;;;;6.38;1.50;;;;;;;32.98;31.14;101154.94;6306516;22;21158;-76
2023/07/14 10:09:20;;;;;;;4.77;1.60;;;;;;;32.92;31.36;101157.00;6307895;22;20337;-76
2023/07/14 10:11:50;;;;;;;5.07;1.35;;;;;;;33.01;30.94;101142.50;6307055;22;20336;-76
2023/07/14 10:14:19;;;;;;;3.83;1.30;;;;;;;33.08;30.65;101142.88;6300618;22;20334;-77
2023/07/14 10:16:46;;;;;;;3.97;1.13;;;;;;;32.34;30.90;101154.97;6297523;22;20341;-75
2023/07/14 10:19:20;;;;;;;4.28;1.25;;;;;;;32.57;31.19;101153.94;6299642;22;20852;-76
2023/07/14 10:21:55;;;;;;;6.23;1.57;;;;;;;32.71;31.18;101144.88;6299961;22;20494;-76
2023/07/14 10:24:21;;;;;;;2.80;1.30;;;;;;;32.88;30.79;101136.78;6298179;22;20361;-75
2023/07/14 10:26:52;;;;;;;4.18;1.30;;;;;;;33.25;30.13;101126.56;6297013;22;20370;-76
2023/07/14 10:29:21;;;;;;;3.80;1.23;;;;;;;33.02;30.79;101136.72;6296786;22;20345;-76
2023/07/14 10:32:01;;;;;;;7.13;1.50;;;;;;;32.72;31.47;101125.34;6297544;22;20357;-76
2023/07/14 10:34:53;;;;;;;5.32;1.55;;;;;;;32.91;31.73;101129.84;6296983;22;20330;-77
2023/07/14 10:37:24;;;;;;;3.15;1.50;;;;;;;32.89;32.09;101124.66;6299901;22;20372;-75
2023/07/14 10:40:11;;;;;;;7.67;1.50;;;;;;;32.94;32.08;101129.25;6304261;22;20659;-75
2023/07/14 10:42:44;;;;;;;5.25;1.45;;;;;;;32.98;31.85;101132.97;6304415;22;20337;-76
2023/07/14 10:45:15;;;;;;;5.00;1.42;;;;;;;33.18;31.74;101117.16;6305549;22;20362;-76
2023/07/14 10:47:49;;;;;;;4.30;1.13;;;;;;;33.26;31.68;101116.38;6305643;22;20341;-76
2023/07/14 10:50:55;;;;;;;4.97;1.30;;;;;;;33.24;32.21;101113.97;6307186;22;20330;-75
2023/07/14 10:53:32;;;;;;;6.25;1.50;;;;;;;33.39;31.21;101114.69;6308822;22;20353;-74
2023/07/14 10:56:05;;;;;;;6.13;1.45;;;;;;;33.19;31.46;101116.84;6309994;22;20403;-74
2023/07/14 10:59:15;;;;;;;3.80;1.37;;;;;;;33.57;31.00;101118.34;6311121;22;20868;-76
2023/07/14 11:01:56;;;;;;;6.80;1.30;;;;;;;33.66;30.46;101116.47;6183322;23;20340;-76
2023/07/14 11:04:40;;;;;;;3.75;1.40;;;;;;;33.89;30.63;101103.47;6304039;22;20403;-76
2023/07/14 11:07:14;;;;;;;4.03;1.50;;;;;;;33.61;30.69;101103.63;6306969;22;20425;-75
2023/07/14 11:09:40;;;;;;;7.93;1.80;;;;;;;33.77;31.18;101100.50;6306922;22;20489;-76
2023/07/14 11:12:09;;;;;;;3.80;1.50;;;;;;;34.07;30.42;101083.13;6306461;22;20451;-76
2023/07/14 11:15:15;;;;;;;5.30;1.67;;;;;;;34.05;30.13;101090.06;6308340;22;20475;-75
2023/07/14 11:18:16;;;;;;;5.20;1.30;;;;;;;33.88;30.03;101094.38;6286190;22;20357;-77
2023/07/14 11:21:00;;;;;;;3.75;1.30;;;;;;;33.97;30.23;101093.59;6202503;22;20643;-76
2023/07/14 11:23:41;;;;;;;2.53;1.20;;;;;;;34.01;29.94;101083.56;6305883;22;20358;-75
2023/07/14 11:26:16;;;;;;;4.40;1.57;;;;;;;34.18;29.74;101089.16;6307854;22;20353;-76
2023/07/14 11:28:52;;;;;;;2.83;1.10;;;;;;;34.09;29.73;101080.84;6307777;22;20421;-76
2023/07/14 11:31:26;;;;;;;2.83;1.27;;;;;;;34.11;29.23;101086.03;6306953;22;20348;-74
2023/07/14 11:34:13;;;;;;;4.73;1.27;;;;;;;34.20;28.67;101084.13;6306285;22;20338;-75
2023/07/14 11:37:32;;;;;;;2.63;1.10;;;;;;;34.11;28.82;101083.28;6280316;22;20345;-76
2023/07/14 11:40:00;;;;;;;3.15;1.05;;;;;;;34.04;29.10;101082.94;6182613;23;20348;-76
2023/07/14 11:42:28;;;;;;;2.60;1.20;;;;;;;34.22;29.03;101086.56;6298893;22;20427;-76